sensor_id;sensor_type;location;lat;lon;timestamp;temperature;humidity
20162;DHT22;51382;53.180;15.414;2023-05-10T00:10:54;10.10;71.60
20162;DHT22;51382;53.180;15.414;2023-05-10T00:26:05;9.90;72.50
20162;DHT22;51382;53.180;15.414;2023-05-10T00:41:18;9.70;73.90
20162;DHT22;51382;53.180;15.414;2023-05-10T00:56:30;9.60;74.20
20162;DHT22;51382;53.180;15.414;2023-05-10T01:11:42;9.50;74.40
20162;DHT22;51382;53.180;15.414;2023-05-10T01:27:01;9.50;74.70
20162;DHT22;51382;53.180;15.414;2023-05-10T01:42:32;9.20;76.20
20162;DHT22;51382;53.180;15.414;2023-05-10T01:57:51;9.20;76.10
20162;DHT22;51382;53.180;15.414;2023-05-10T02:13:03;9.10;76.50
20162;DHT22;51382;53.180;15.414;2023-05-10T02:28:17;8.60;79.30
20162;DHT22;51382;53.180;15.414;2023-05-10T02:43:31;8.60;78.40
20162;DHT22;51382;53.180;15.414;2023-05-10T02:58:45;8.50;79.10
20162;DHT22;51382;53.180;15.414;2023-05-10T03:14:01;8.30;80.40
20162;DHT22;51382;53.180;15.414;2023-05-10T03:29:19;8.30;81.30
20162;DHT22;51382;53.180;15.414;2023-05-10T03:44:32;8.10;82.90
20162;DHT22;51382;53.180;15.414;2023-05-10T03:59:44;8.40;81.80
20162;DHT22;51382;53.180;15.414;2023-05-10T04:14:56;9.00;79.90
20162;DHT22;51382;53.180;15.414;2023-05-10T04:30:09;12.00;69.30
20162;DHT22;51382;53.180;15.414;2023-05-10T04:45:21;12.60;66.90
20162;DHT22;51382;53.180;15.414;2023-05-10T05:00:32;14.00;64.30
20162;DHT22;51382;53.180;15.414;2023-05-10T05:15:44;14.80;61.80
20162;DHT22;51382;53.180;15.414;2023-05-10T05:30:55;15.40;60.60
20162;DHT22;51382;53.180;15.414;2023-05-10T05:46:06;15.90;58.90
20162;DHT22;51382;53.180;15.414;2023-05-10T06:01:18;15.40;58.80
20162;DHT22;51382;53.180;15.414;2023-05-10T06:16:29;14.00;61.30
20162;DHT22;51382;53.180;15.414;2023-05-10T06:31:40;16.90;57.00
20162;DHT22;51382;53.180;15.414;2023-05-10T06:46:52;18.30;52.90
20162;DHT22;51382;53.180;15.414;2023-05-10T07:02:03;18.10;54.50
20162;DHT22;51382;53.180;15.414;2023-05-10T07:17:15;18.60;52.50
20162;DHT22;51382;53.180;15.414;2023-05-10T07:32:26;19.30;52.20
20162;DHT22;51382;53.180;15.414;2023-05-10T07:47:37;20.90;49.90
20162;DHT22;51382;53.180;15.414;2023-05-10T08:02:49;21.00;47.80
20162;DHT22;51382;53.180;15.414;2023-05-10T08:18:00;21.50;49.30
20162;DHT22;51382;53.180;15.414;2023-05-10T08:33:12;22.30;46.90
20162;DHT22;51382;53.180;15.414;2023-05-10T08:48:24;22.20;46.30
20162;DHT22;51382;53.180;15.414;2023-05-10T09:03:38;22.00;45.40
20162;DHT22;51382;53.180;15.414;2023-05-10T09:18:50;23.30;42.80
20162;DHT22;51382;53.180;15.414;2023-05-10T09:34:02;20.30;46.10
20162;DHT22;51382;53.180;15.414;2023-05-10T09:49:15;18.60;49.50
20162;DHT22;51382;53.180;15.414;2023-05-10T10:04:26;19.00;47.90
20162;DHT22;51382;53.180;15.414;2023-05-10T10:19:38;18.80;50.10
20162;DHT22;51382;53.180;15.414;2023-05-10T10:34:50;19.00;49.60
20162;DHT22;51382;53.180;15.414;2023-05-10T10:50:04;19.70;49.70
20162;DHT22;51382;53.180;15.414;2023-05-10T11:20:52;19.90;46.50
20162;DHT22;51382;53.180;15.414;2023-05-10T11:36:05;19.50;48.10
20162;DHT22;51382;53.180;15.414;2023-05-10T11:51:22;19.80;48.80
20162;DHT22;51382;53.180;15.414;2023-05-10T12:06:39;20.00;47.30
20162;DHT22;51382;53.180;15.414;2023-05-10T12:21:51;20.00;46.20
20162;DHT22;51382;53.180;15.414;2023-05-10T12:37:03;20.20;46.00
20162;DHT22;51382;53.180;15.414;2023-05-10T12:52:14;20.20;45.70
20162;DHT22;51382;53.180;15.414;2023-05-10T13:07:26;20.20;46.80
20162;DHT22;51382;53.180;15.414;2023-05-10T13:22:37;20.20;45.50
20162;DHT22;51382;53.180;15.414;2023-05-10T13:37:48;20.20;46.50
20162;DHT22;51382;53.180;15.414;2023-05-10T13:53:02;20.30;46.70
20162;DHT22;51382;53.180;15.414;2023-05-10T14:08:13;20.40;47.10
20162;DHT22;51382;53.180;15.414;2023-05-10T14:23:25;20.40;48.10
20162;DHT22;51382;53.180;15.414;2023-05-10T14:38:37;20.30;47.60
20162;DHT22;51382;53.180;15.414;2023-05-10T14:53:48;20.10;48.00
20162;DHT22;51382;53.180;15.414;2023-05-10T15:09:05;20.20;47.90
20162;DHT22;51382;53.180;15.414;2023-05-10T15:24:19;20.20;48.30
20162;DHT22;51382;53.180;15.414;2023-05-10T15:39:33;20.20;48.30
20162;DHT22;51382;53.180;15.414;2023-05-10T15:54:41;20.20;49.50
20162;DHT22;51382;53.180;15.414;2023-05-10T16:09:55;19.90;49.60
20162;DHT22;51382;53.180;15.414;2023-05-10T16:25:12;19.90;50.10
20162;DHT22;51382;53.180;15.414;2023-05-10T16:40:26;19.70;51.20
20162;DHT22;51382;53.180;15.414;2023-05-10T16:55:40;19.50;51.10
20162;DHT22;51382;53.180;15.414;2023-05-10T17:10:54;19.20;52.60
20162;DHT22;51382;53.180;15.414;2023-05-10T17:26:07;19.00;53.10
20162;DHT22;51382;53.180;15.414;2023-05-10T17:41:17;18.60;54.20
20162;DHT22;51382;53.180;15.414;2023-05-10T17:56:27;18.50;54.50
20162;DHT22;51382;53.180;15.414;2023-05-10T18:11:42;18.00;56.80
20162;DHT22;51382;53.180;15.414;2023-05-10T18:26:53;17.70;58.40
20162;DHT22;51382;53.180;15.414;2023-05-10T18:42:04;17.30;59.20
20162;DHT22;51382;53.180;15.414;2023-05-10T18:57:17;16.90;60.00
20162;DHT22;51382;53.180;15.414;2023-05-10T19:12:29;16.30;63.00
20162;DHT22;51382;53.180;15.414;2023-05-10T19:27:37;15.50;64.90
20162;DHT22;51382;53.180;15.414;2023-05-10T19:42:53;15.20;66.30
20162;DHT22;51382;53.180;15.414;2023-05-10T19:58:04;15.20;67.10
20162;DHT22;51382;53.180;15.414;2023-05-10T20:13:18;14.10;71.80
20162;DHT22;51382;53.180;15.414;2023-05-10T20:28:32;13.90;72.60
20162;DHT22;51382;53.180;15.414;2023-05-10T20:43:39;13.10;76.60
20162;DHT22;51382;53.180;15.414;2023-05-10T20:58:54;13.00;77.80
20162;DHT22;51382;53.180;15.414;2023-05-10T21:14:03;12.90;77.40
20162;DHT22;51382;53.180;15.414;2023-05-10T21:29:18;12.90;77.40
20162;DHT22;51382;53.180;15.414;2023-05-10T21:44:31;13.30;74.50
20162;DHT22;51382;53.180;15.414;2023-05-10T21:59:42;13.10;75.10
20162;DHT22;51382;53.180;15.414;2023-05-10T22:14:50;13.30;73.40
20162;DHT22;51382;53.180;15.414;2023-05-10T22:29:58;13.20;73.60
20162;DHT22;51382;53.180;15.414;2023-05-10T22:45:13;12.90;73.40
20162;DHT22;51382;53.180;15.414;2023-05-10T23:00:21;12.70;74.20
20162;DHT22;51382;53.180;15.414;2023-05-10T23:15:31;12.40;75.00
20162;DHT22;51382;53.180;15.414;2023-05-10T23:30:46;12.30;75.60
20162;DHT22;51382;53.180;15.414;2023-05-10T23:46:04;12.10;76.10
